KVCT/VCT METAR and TAF weather

Enter ICAO airport designator
Station Type Date Time Source
KVCT METAR 2021/09/25 11:51 UTC NOAA

KVCT 251151Z 05005KT 10SM CLR 15/13 A3008 RMK AO2 SLP186 T01500133 10178 20150 53008


Station Type Date Time Source
KVCT Decoded METAR 2021/09/25 11:51 UTC NOAA

VICTORIA REGIONAL AIRPORT, TX, United States (KVCT) 28-52N 96-56W 31M
Sep 25, 2021 - 07:51 AM EDT / 2021.09.25 1151 UTC
Wind: from the NE (050 degrees) at 6 MPH (5 KT):0
Visibility: 10 mile(s):0
Sky conditions: clear
Temperature: 59.0 F (15.0 C)
Dew Point: 55.9 F (13.3 C)
Relative Humidity: 89%
Pressure (altimeter): 30.08 in. Hg (1018 hPa)
Pressure tendency: 0.02 inches (0.8 hPa) higher than three hours ago
ob: KVCT 251151Z 05005KT 10SM CLR 15/13 A3008 RMK AO2 SLP186 T01500133 10178 20150 53008
cycle: 12

Station Type Date Time Source
KVCT TAF 2021/09/25 12:33 UTC NOAA

TAF KVCT 251130Z 2512/2612 10007KT P6SM FEW120 FEW250

Example: see airport list